Time;durP1;ratioP1;P1;durP2;ratioP2;P2;SDS_P1;SDS_P2;PMS_P1;PMS_P2;Temp;Humidity;BMP_temperature;BMP_pressure;BME280_temperature;BME280_humidity;BME280_pressure;Samples;Min_cycle;Max_cycle;Signal;HPM_P1;HPM_P2
2022/06/30 00:00:03;;;;;;;7.13;5.53;;;18.70;99.90;;;;;;5056328;28;20082;-79
2022/06/30 00:02:28;;;;;;;5.85;5.18;;;18.70;99.90;;;;;;5056558;28;20051;-79
2022/06/30 00:04:54;;;;;;;9.38;5.35;;;18.70;99.90;;;;;;5056085;28;20484;-80
2022/06/30 00:07:19;;;;;;;7.55;4.43;;;18.60;99.90;;;;;;5072497;28;20084;-79
2022/06/30 00:09:45;;;;;;;5.72;4.50;;;18.60;99.90;;;;;;5056055;28;20384;-80
2022/06/30 00:12:11;;;;;;;4.63;4.03;;;18.70;99.90;;;;;;5055617;28;20499;-79
2022/06/30 00:14:37;;;;;;;6.13;4.00;;;18.60;99.90;;;;;;5053756;28;20036;-79
2022/06/30 00:17:03;;;;;;;6.68;5.07;;;18.60;99.90;;;;;;5054970;28;20036;-79
2022/06/30 00:19:29;;;;;;;6.50;4.07;;;18.60;99.90;;;;;;5055773;28;20403;-78
2022/06/30 00:21:54;;;;;;;5.95;4.10;;;18.60;99.90;;;;;;5055212;28;20047;-79
2022/06/30 00:24:20;;;;;;;5.07;3.97;;;18.50;99.90;;;;;;5053968;28;20125;-79
2022/06/30 00:26:45;;;;;;;4.22;3.83;;;18.50;99.90;;;;;;5054016;28;20045;-79
2022/06/30 00:29:11;;;;;;;5.07;4.00;;;18.50;99.90;;;;;;5054040;28;20498;-79
2022/06/30 00:31:38;;;;;;;5.60;4.03;;;18.40;99.90;;;;;;5052628;28;20041;-79
2022/06/30 00:34:03;;;;;;;5.03;3.58;;;18.40;99.90;;;;;;5054192;28;20483;-78
2022/06/30 00:36:29;;;;;;;4.80;3.85;;;18.40;99.90;;;;;;5052529;28;20115;-78
2022/06/30 00:38:55;;;;;;;8.10;4.53;;;18.40;99.90;;;;;;5052358;28;20120;-78
2022/06/30 00:41:21;;;;;;;6.28;4.00;;;18.50;99.90;;;;;;5048410;28;20051;-79
2022/06/30 00:43:48;;;;;;;6.28;3.90;;;18.50;99.90;;;;;;5050477;28;20058;-79
2022/06/30 00:46:17;;;;;;;4.70;3.70;;;18.40;99.90;;;;;;5069571;28;20040;-78
2022/06/30 00:48:43;;;;;;;5.03;3.95;;;18.40;99.90;;;;;;5040712;28;20048;-78
2022/06/30 00:51:10;;;;;;;6.40;3.95;;;18.40;99.90;;;;;;5051782;28;20457;-78
2022/06/30 00:53:38;;;;;;;4.70;3.75;;;18.40;99.90;;;;;;5053465;28;20076;-78
2022/06/30 00:56:05;;;;;;;5.32;4.13;;;18.30;99.90;;;;;;5053146;28;20075;-78
2022/06/30 00:58:35;;;;;;;8.68;3.75;;;18.30;99.90;;;;;;5036768;28;20444;-78
2022/06/30 01:01:03;;;;;;;6.07;4.03;;;18.30;99.90;;;;;;5053174;28;20525;-78
2022/06/30 01:03:31;;;;;;;4.55;3.90;;;18.30;99.90;;;;;;5053422;28;20044;-79
2022/06/30 01:05:59;;;;;;;4.88;3.80;;;18.30;99.90;;;;;;5053433;28;20097;-78
2022/06/30 01:08:25;;;;;;;6.03;4.20;;;18.20;99.90;;;;;;5037121;28;20369;-78
2022/06/30 01:13:35;;;;;;;6.32;4.57;;;18.30;99.90;;;;;;5053267;28;20173;-78
2022/06/30 01:16:01;;;;;;;5.63;4.28;;;18.30;99.90;;;;;;5053138;28;20066;-78
2022/06/30 01:18:27;;;;;;;6.55;4.40;;;18.30;99.90;;;;;;5051571;28;20033;-78
2022/06/30 01:20:52;;;;;;;6.00;4.28;;;18.30;99.90;;;;;;5052855;28;20047;-78
2022/06/30 01:23:18;;;;;;;8.02;4.55;;;18.20;99.90;;;;;;5061423;28;20087;-78
2022/06/30 01:25:45;;;;;;;6.97;5.10;;;18.20;99.90;;;;;;5052793;28;20075;-79
2022/06/30 01:28:11;;;;;;;7.00;4.78;;;18.20;99.90;;;;;;5052805;28;20054;-78
2022/06/30 01:30:36;;;;;;;9.65;4.75;;;18.20;99.90;;;;;;5053092;28;20135;-78
2022/06/30 01:33:02;;;;;;;6.60;4.63;;;18.10;99.90;;;;;;5052832;28;20517;-78
2022/06/30 01:35:28;;;;;;;6.32;4.82;;;18.10;99.90;;;;;;5052756;28;20052;-79
2022/06/30 01:37:58;;;;;;;9.05;4.53;;;18.20;99.90;;;;;;5053320;28;20408;-76
2022/06/30 01:40:27;;;;;;;5.53;4.72;;;18.20;99.90;;;;;;5052858;28;20036;-76
2022/06/30 01:42:54;;;;;;;8.07;5.05;;;18.10;99.90;;;;;;5052818;28;20132;-76
2022/06/30 01:45:21;;;;;;;5.95;4.68;;;18.10;99.90;;;;;;5067212;28;20049;-76
2022/06/30 01:47:47;;;;;;;6.25;4.82;;;18.00;99.90;;;;;;5052831;28;20044;-77
2022/06/30 01:50:18;;;;;;;6.35;4.85;;;18.00;99.90;;;;;;5052494;28;20047;-77
2022/06/30 01:52:44;;;;;;;4.97;4.43;;;18.00;99.90;;;;;;5036008;28;20063;-76
2022/06/30 01:55:10;;;;;;;7.70;4.53;;;18.00;99.90;;;;;;5052619;28;20045;-76
2022/06/30 01:57:37;;;;;;;5.95;4.70;;;17.90;99.90;;;;;;5053040;28;20048;-76
2022/06/30 02:00:05;;;;;;;4.95;4.30;;;17.90;99.90;;;;;;5052410;28;20552;-76
2022/06/30 02:02:31;;;;;;;5.35;4.22;;;17.90;99.90;;;;;;5052599;28;20048;-77
2022/06/30 02:04:56;;;;;;;5.60;4.43;;;17.80;99.90;;;;;;5052616;28;20045;-76
2022/06/30 02:07:23;;;;;;;6.63;4.35;;;17.80;99.90;;;;;;5070471;28;20406;-77
2022/06/30 02:09:52;;;;;;;7.38;4.95;;;17.80;99.90;;;;;;5052323;28;20354;-76
2022/06/30 02:15:05;;;;;;;5.25;4.10;;;17.80;99.90;;;;;;5052426;28;20139;-76
2022/06/30 02:17:31;;;;;;;6.85;4.38;;;17.70;99.90;;;;;;5052747;28;20376;-77
2022/06/30 02:19:56;;;;;;;6.03;4.70;;;17.70;99.90;;;;;;5035665;28;20048;-78
2022/06/30 02:22:22;;;;;;;4.75;3.92;;;17.70;99.90;;;;;;5052786;28;20048;-78
2022/06/30 02:24:47;;;;;;;6.05;4.45;;;17.60;99.90;;;;;;5052392;28;20052;-79
2022/06/30 02:27:13;;;;;;;5.03;3.85;;;17.60;99.90;;;;;;5052623;28;20041;-78
2022/06/30 02:29:39;;;;;;;6.50;4.78;;;17.60;99.90;;;;;;5053230;28;20053;-78
2022/06/30 02:32:05;;;;;;;6.30;4.80;;;17.60;99.90;;;;;;5056256;28;20408;-78
2022/06/30 02:34:31;;;;;;;7.15;4.95;;;17.50;99.90;;;;;;5039382;28;20207;-78
2022/06/30 02:36:56;;;;;;;6.05;4.60;;;17.50;99.90;;;;;;5056054;28;20068;-78
2022/06/30 02:39:22;;;;;;;7.28;4.72;;;17.50;99.90;;;;;;5053269;28;20040;-79
2022/06/30 02:41:48;;;;;;;5.85;4.32;;;17.50;99.90;;;;;;5055984;28;20036;-79
2022/06/30 02:44:13;;;;;;;5.93;4.55;;;17.50;99.90;;;;;;5073329;28;20036;-78
2022/06/30 02:46:39;;;;;;;6.72;4.85;;;17.50;99.90;;;;;;5055661;28;20040;-78
2022/06/30 02:49:04;;;;;;;5.82;4.80;;;17.50;99.90;;;;;;5055524;28;20133;-78
2022/06/30 02:51:30;;;;;;;5.40;4.80;;;17.50;99.90;;;;;;5055518;28;20454;-78
2022/06/30 02:53:56;;;;;;;6.35;5.45;;;17.50;99.90;;;;;;5073522;28;20045;-78
2022/06/30 02:56:22;;;;;;;7.60;4.57;;;17.40;99.90;;;;;;5055576;28;20484;-79
2022/06/30 02:58:49;;;;;;;6.97;4.55;;;17.40;99.90;;;;;;5054358;28;20051;-78
2022/06/30 03:01:14;;;;;;;6.07;4.78;;;17.40;99.90;;;;;;5055505;28;20123;-78
2022/06/30 03:03:40;;;;;;;8.18;5.00;;;17.40;99.90;;;;;;5055434;28;20140;-78
2022/06/30 03:06:06;;;;;;;7.22;4.97;;;17.30;99.90;;;;;;5051741;28;20530;-78
2022/06/30 03:08:32;;;;;;;6.13;4.85;;;17.30;99.90;;;;;;5047323;28;20051;-78
2022/06/30 03:10:58;;;;;;;6.00;4.68;;;17.30;99.90;;;;;;5051830;28;20036;-78
2022/06/30 03:13:24;;;;;;;7.25;4.60;;;17.20;99.90;;;;;;5046472;28;20376;-78
2022/06/30 03:15:50;;;;;;;6.45;4.72;;;17.20;99.90;;;;;;5055187;28;20044;-78
2022/06/30 03:18:16;;;;;;;7.13;5.03;;;17.20;99.90;;;;;;5073118;28;20164;-78
2022/06/30 03:20:42;;;;;;;6.63;4.68;;;17.10;99.90;;;;;;5054773;28;20040;-78
2022/06/30 03:23:07;;;;;;;8.45;5.10;;;17.10;99.90;;;;;;5055251;28;20399;-78
2022/06/30 03:25:33;;;;;;;8.80;5.47;;;17.00;99.90;;;;;;5054999;28;20048;-78
2022/06/30 03:27:59;;;;;;;7.80;4.60;;;17.10;99.90;;;;;;5059052;28;20036;-80
2022/06/30 03:30:25;;;;;;;7.93;5.13;;;17.10;99.90;;;;;;5059402;28;20564;-79
2022/06/30 03:32:51;;;;;;;8.30;5.00;;;17.10;99.90;;;;;;5076207;28;20411;-79
2022/06/30 03:35:18;;;;;;;5.63;4.53;;;17.10;99.90;;;;;;5078087;28;20036;-79
2022/06/30 03:37:44;;;;;;;4.68;4.10;;;17.10;99.90;;;;;;5060532;28;20049;-80
2022/06/30 03:40:10;;;;;;;7.78;5.10;;;17.00;99.90;;;;;;5060480;28;20036;-78
2022/06/30 03:42:36;;;;;;;6.72;4.95;;;17.10;99.90;;;;;;5044506;28;20044;-79
2022/06/30 03:45:02;;;;;;;7.55;5.20;;;17.10;99.90;;;;;;5058671;28;20036;-79
2022/06/30 03:47:28;;;;;;;6.95;5.15;;;17.10;99.90;;;;;;5052515;28;20040;-79
2022/06/30 03:49:53;;;;;;;5.68;5.00;;;17.10;99.90;;;;;;5060770;28;20460;-80
2022/06/30 03:52:19;;;;;;;5.88;4.70;;;17.10;99.90;;;;;;5062076;28;20576;-79
2022/06/30 03:54:44;;;;;;;6.40;5.05;;;17.10;99.90;;;;;;5062292;28;20075;-79
2022/06/30 03:57:10;;;;;;;6.57;4.57;;;17.10;99.90;;;;;;5061757;28;20111;-79
2022/06/30 03:59:37;;;;;;;7.97;4.60;;;17.10;99.90;;;;;;5059199;28;20051;-79
2022/06/30 04:02:03;;;;;;;5.68;4.82;;;17.10;99.90;;;;;;5060770;28;20086;-80
2022/06/30 04:04:29;;;;;;;8.13;4.85;;;17.10;99.90;;;;;;5059581;28;20555;-80
2022/06/30 04:06:55;;;;;;;8.82;5.13;;;17.20;99.90;;;;;;5058931;28;20044;-79
2022/06/30 04:09:20;;;;;;;9.10;4.78;;;17.20;99.90;;;;;;5059547;28;20059;-79
2022/06/30 04:11:46;;;;;;;7.18;5.65;;;17.20;99.90;;;;;;5078166;28;20381;-79
2022/06/30 04:14:12;;;;;;;6.53;5.25;;;17.20;99.90;;;;;;5060326;28;20032;-79
2022/06/30 04:16:37;;;;;;;6.70;5.18;;;17.20;99.90;;;;;;5057793;28;20058;-79
2022/06/30 04:19:03;;;;;;;6.07;4.65;;;17.30;99.90;;;;;;5059039;28;20206;-79
2022/06/30 04:21:28;;;;;;;4.80;4.30;;;17.20;99.90;;;;;;5057471;28;20097;-79
2022/06/30 04:23:54;;;;;;;7.15;4.88;;;17.30;99.90;;;;;;5057839;28;20045;-79
2022/06/30 04:26:20;;;;;;;6.75;4.68;;;17.40;99.90;;;;;;5057690;28;20072;-79
2022/06/30 04:28:45;;;;;;;9.93;5.90;;;17.40;99.90;;;;;;5054929;28;20049;-77
2022/06/30 04:33:55;;;;;;;7.45;5.25;;;17.50;99.90;;;;;;5071570;28;20102;-76
2022/06/30 04:36:21;;;;;;;6.75;5.60;;;17.50;99.90;;;;;;5053681;28;20463;-76
2022/06/30 04:38:46;;;;;;;6.38;4.88;;;17.60;99.90;;;;;;5053739;28;20097;-76
2022/06/30 04:41:24;;;;;;;8.93;5.65;;;17.60;99.90;;;;;;5053732;28;20161;-76
2022/06/30 04:43:54;;;;;;;6.72;4.57;;;17.70;99.90;;;;;;5074947;28;20183;-75
2022/06/30 04:46:20;;;;;;;8.68;5.07;;;17.80;99.90;;;;;;5073935;28;20028;-76
2022/06/30 04:48:45;;;;;;;6.22;5.05;;;17.80;99.90;;;;;;5071357;28;20046;-76
2022/06/30 04:51:11;;;;;;;5.55;4.80;;;17.90;99.90;;;;;;5071198;28;20114;-75
2022/06/30 04:53:37;;;;;;;8.63;5.22;;;18.10;99.90;;;;;;5052607;28;20053;-76
2022/06/30 04:56:03;;;;;;;5.82;4.80;;;18.40;99.90;;;;;;5053496;28;20760;-76
2022/06/30 04:58:28;;;;;;;6.32;4.75;;;18.60;99.90;;;;;;5053621;28;20044;-76
2022/06/30 05:00:54;;;;;;;9.38;5.45;;;18.70;99.90;;;;;;5071124;28;20513;-76
2022/06/30 05:03:20;;;;;;;8.90;5.13;;;18.80;99.90;;;;;;5053310;28;20056;-75
2022/06/30 05:05:45;;;;;;;10.27;5.50;;;18.90;99.90;;;;;;5071134;28;20040;-76
2022/06/30 05:08:11;;;;;;;23.25;14.00;;;19.00;99.90;;;;;;5053098;28;20040;-76
2022/06/30 05:10:36;;;;;;;10.65;5.85;;;19.10;99.90;;;;;;5070758;28;20483;-76
2022/06/30 05:13:02;;;;;;;8.00;5.55;;;19.30;99.90;;;;;;5053316;28;20076;-76
2022/06/30 05:15:28;;;;;;;6.47;4.72;;;19.70;99.90;;;;;;5053064;28;20072;-76
2022/06/30 05:17:53;;;;;;;6.65;4.93;;;20.30;99.90;;;;;;5053061;28;20040;-76
2022/06/30 05:20:19;;;;;;;6.60;4.65;;;20.90;99.90;;;;;;5052689;28;20044;-76
2022/06/30 05:22:45;;;;;;;7.05;5.82;;;21.50;99.90;;;;;;5070896;28;20553;-76
2022/06/30 05:27:54;;;;;;;6.15;4.75;;;22.50;99.90;;;;;;5040850;28;20126;-76
2022/06/30 05:30:20;;;;;;;9.25;5.10;;;23.00;99.90;;;;;;5050171;28;20052;-77
2022/06/30 05:32:46;;;;;;;8.25;4.70;;;23.40;99.90;;;;;;5052675;28;20055;-76
2022/06/30 05:35:12;;;;;;;10.13;4.75;;;23.70;99.90;;;;;;5052612;28;20078;-76
2022/06/30 05:37:38;;;;;;;6.53;4.93;;;23.90;99.90;;;;;;5052803;28;20066;-77
2022/06/30 05:40:05;;;;;;;6.82;4.93;;;24.20;99.90;;;;;;5052595;28;20147;-77
2022/06/30 05:42:30;;;;;;;8.10;4.60;;;24.50;99.90;;;;;;5052612;28;20091;-77
2022/06/30 05:44:56;;;;;;;6.78;4.82;;;24.70;99.90;;;;;;5052672;28;20072;-76
2022/06/30 05:47:22;;;;;;;6.03;4.90;;;24.90;99.90;;;;;;5054771;28;20095;-79
2022/06/30 05:49:47;;;;;;;7.15;4.60;;;25.10;99.90;;;;;;5040629;28;20048;-79
2022/06/30 05:52:13;;;;;;;8.00;4.78;;;25.30;99.90;;;;;;5056066;28;20055;-79
2022/06/30 05:54:39;;;;;;;6.30;4.65;;;25.50;99.90;;;;;;5055269;28;20079;-80
2022/06/30 05:57:05;;;;;;;4.97;4.47;;;25.70;99.90;;;;;;5039458;28;20044;-79
2022/06/30 05:59:32;;;;;;;6.35;5.18;;;25.90;99.90;;;;;;5055860;28;20074;-80
2022/06/30 06:01:59;;;;;;;7.35;5.05;;;26.10;99.90;;;;;;5056368;28;20378;-80
2022/06/30 06:04:24;;;;;;;4.85;4.30;;;26.20;99.90;;;;;;5042541;28;20135;-80
2022/06/30 06:06:50;;;;;;;6.90;4.90;;;26.50;99.90;;;;;;5059782;28;20123;-80
2022/06/30 06:09:16;;;;;;;7.25;4.32;;;26.60;99.90;;;;;;5059200;28;20090;-80
2022/06/30 06:11:42;;;;;;;7.80;5.13;;;26.70;99.90;;;;;;5060111;28;20036;-80
2022/06/30 06:14:08;;;;;;;6.65;4.25;;;26.90;99.90;;;;;;5061102;28;20037;-80
2022/06/30 06:16:34;;;;;;;5.45;4.50;;;26.90;99.90;;;;;;5059445;28;20124;-79
2022/06/30 06:18:59;;;;;;;6.00;4.90;;;27.00;99.90;;;;;;5042885;28;20115;-80
2022/06/30 06:21:26;;;;;;;5.35;4.70;;;27.20;99.90;;;;;;5059870;28;20445;-80
2022/06/30 06:23:53;;;;;;;5.85;4.90;;;27.30;99.90;;;;;;5060234;28;20097;-80
2022/06/30 06:26:19;;;;;;;6.78;5.00;;;27.50;99.90;;;;;;5059701;28;20049;-80
2022/06/30 06:31:29;;;;;;;6.22;4.32;;;27.60;99.90;;;;;;5059688;28;20083;-80
2022/06/30 06:33:54;;;;;;;5.97;4.70;;;27.70;99.90;;;;;;5059237;28;20080;-80
2022/06/30 06:36:20;;;;;;;6.63;4.93;;;28.00;99.60;;;;;;5058661;28;20036;-81
2022/06/30 06:38:46;;;;;;;6.78;5.03;;;28.10;98.90;;;;;;5059517;28;20306;-80
2022/06/30 06:41:11;;;;;;;6.13;5.00;;;28.10;98.70;;;;;;5060082;28;20044;-80
2022/06/30 06:43:37;;;;;;;6.70;4.68;;;28.20;98.30;;;;;;5062556;28;20052;-79
2022/06/30 06:46:03;;;;;;;5.45;4.88;;;28.30;97.70;;;;;;5063099;28;20052;-79
2022/06/30 06:48:28;;;;;;;5.50;4.65;;;28.30;97.20;;;;;;5062348;28;20093;-80
2022/06/30 06:50:54;;;;;;;6.03;4.65;;;28.50;97.10;;;;;;5045384;28;20051;-79
2022/06/30 06:53:20;;;;;;;6.80;5.90;;;28.50;96.60;;;;;;5062215;28;20049;-80
2022/06/30 06:55:46;;;;;;;8.60;4.97;;;28.50;96.10;;;;;;5044996;28;20044;-80
2022/06/30 06:58:12;;;;;;;6.53;4.82;;;28.70;96.00;;;;;;5045109;28;20040;-79
2022/06/30 07:00:38;;;;;;;5.82;5.30;;;28.70;95.90;;;;;;5061265;28;20040;-80
2022/06/30 07:03:03;;;;;;;7.05;5.00;;;28.70;95.10;;;;;;5061143;28;20177;-80
2022/06/30 07:05:29;;;;;;;8.23;5.60;;;28.80;94.60;;;;;;5078776;28;20051;-80
2022/06/30 07:07:59;;;;;;;10.75;6.90;;;28.90;95.10;;;;;;5061251;28;20040;-81
2022/06/30 07:10:25;;;;;;;6.87;5.70;;;29.10;93.60;;;;;;5061702;28;20434;-80
2022/06/30 07:12:52;;;;;;;6.93;6.22;;;29.20;94.30;;;;;;5061744;28;20076;-80
2022/06/30 07:15:18;;;;;;;6.13;5.40;;;29.30;94.40;;;;;;5060529;28;20032;-80
2022/06/30 07:17:43;;;;;;;6.07;5.45;;;29.40;94.10;;;;;;5079824;28;20458;-80
2022/06/30 07:20:09;;;;;;;9.30;5.97;;;29.40;93.80;;;;;;5044543;28;20108;-80
2022/06/30 07:22:35;;;;;;;7.50;6.25;;;29.60;93.10;;;;;;5060351;28;20044;-79
2022/06/30 07:25:02;;;;;;;6.50;5.68;;;29.70;92.70;;;;;;5061361;28;20090;-80
2022/06/30 07:27:28;;;;;;;7.10;6.07;;;29.70;92.90;;;;;;5078564;28;20085;-80
2022/06/30 07:29:54;;;;;;;5.88;5.30;;;29.70;93.40;;;;;;5061564;28;20037;-80
2022/06/30 07:32:19;;;;;;;8.02;6.88;;;29.70;93.30;;;;;;5079527;28;20086;-80
2022/06/30 07:34:45;;;;;;;9.68;6.75;;;29.80;92.90;;;;;;5079243;28;20045;-80
2022/06/30 07:37:11;;;;;;;8.95;6.55;;;29.90;92.60;;;;;;5061408;28;20052;-80
2022/06/30 07:39:36;;;;;;;10.45;6.63;;;30.00;92.10;;;;;;5060365;28;20036;-79
2022/06/30 07:42:02;;;;;;;6.68;5.43;;;30.00;91.60;;;;;;5061044;28;20398;-80
2022/06/30 07:44:28;;;;;;;6.65;5.20;;;29.90;92.20;;;;;;5060931;28;20040;-80
2022/06/30 07:46:53;;;;;;;7.90;6.60;;;30.00;92.70;;;;;;5061137;28;20040;-79
2022/06/30 07:49:19;;;;;;;7.00;5.80;;;29.90;91.80;;;;;;5060578;28;20169;-80
2022/06/30 07:51:45;;;;;;;11.25;6.10;;;29.90;92.30;;;;;;5044170;28;20037;-79
2022/06/30 07:54:11;;;;;;;9.40;6.07;;;30.10;91.80;;;;;;5061048;28;20409;-79
2022/06/30 07:56:36;;;;;;;8.95;6.45;;;30.30;91.40;;;;;;5060583;28;20044;-80
2022/06/30 07:59:02;;;;;;;9.70;6.75;;;30.40;91.20;;;;;;5060649;28;20124;-80
2022/06/30 08:01:28;;;;;;;7.65;6.68;;;30.40;91.00;;;;;;5060513;28;20050;-79
2022/06/30 08:03:54;;;;;;;7.05;5.78;;;30.50;91.20;;;;;;5061436;28;20036;-79
2022/06/30 08:06:21;;;;;;;8.20;6.53;;;30.60;91.50;;;;;;5060830;28;20128;-79
2022/06/30 08:08:47;;;;;;;8.00;6.40;;;30.40;90.80;;;;;;5060994;28;20453;-78
2022/06/30 08:11:13;;;;;;;10.13;5.90;;;30.40;91.60;;;;;;5063839;28;20116;-79
2022/06/30 08:13:38;;;;;;;6.78;6.03;;;30.40;92.40;;;;;;5066476;28;20044;-80
2022/06/30 08:16:04;;;;;;;6.32;5.72;;;30.50;91.50;;;;;;5060066;28;20083;-80
2022/06/30 08:18:30;;;;;;;7.63;5.97;;;30.50;91.30;;;;;;5059829;28;20476;-79
2022/06/30 08:20:56;;;;;;;7.32;6.60;;;30.60;91.20;;;;;;5058151;28;20040;-79
2022/06/30 08:23:22;;;;;;;9.50;7.47;;;30.50;90.90;;;;;;5057821;28;20059;-80
2022/06/30 08:25:47;;;;;;;8.05;5.90;;;30.50;91.10;;;;;;5075456;28;20495;-80
2022/06/30 08:28:13;;;;;;;7.40;6.70;;;30.50;92.20;;;;;;5058463;28;20032;-80
2022/06/30 08:30:40;;;;;;;11.02;8.25;;;30.50;91.60;;;;;;5059387;28;20064;-79
2022/06/30 08:33:06;;;;;;;9.05;8.07;;;30.50;90.50;;;;;;5059133;28;20392;-79
2022/06/30 08:35:31;;;;;;;6.93;6.22;;;30.30;90.20;;;;;;5058270;28;20047;-81
2022/06/30 08:37:57;;;;;;;8.52;6.85;;;30.20;91.50;;;;;;5077411;28;20127;-80
2022/06/30 08:43:13;;;;;;;11.07;8.73;;;30.10;91.90;;;;;;5029702;28;20037;-79
2022/06/30 08:45:40;;;;;;;7.82;7.10;;;30.20;91.10;;;;;;5041760;28;20058;-79
2022/06/30 08:48:05;;;;;;;8.23;6.32;;;30.30;91.40;;;;;;5057388;28;20605;-79
2022/06/30 08:50:31;;;;;;;8.05;7.05;;;30.20;92.70;;;;;;5057255;28;20040;-78
2022/06/30 08:52:59;;;;;;;9.98;7.53;;;30.30;92.70;;;;;;5057098;28;20046;-79
2022/06/30 08:55:30;;;;;;;11.95;7.93;;;30.50;92.30;;;;;;5056019;28;20067;-79
2022/06/30 08:58:06;;;;;;;8.85;8.05;;;30.60;91.70;;;;;;5056053;28;20043;-79
2022/06/30 09:00:33;;;;;;;10.68;8.35;;;30.60;90.30;;;;;;5075376;28;20044;-80
2022/06/30 09:02:59;;;;;;;10.52;8.15;;;30.50;90.80;;;;;;5057825;28;20067;-79
2022/06/30 09:05:25;;;;;;;10.50;9.40;;;30.40;91.30;;;;;;5058103;28;20468;-78
2022/06/30 09:07:50;;;;;;;11.15;8.27;;;30.70;90.50;;;;;;5073699;28;20072;-79
2022/06/30 09:10:16;;;;;;;10.73;8.35;;;30.80;90.10;;;;;;5056477;28;20082;-80
2022/06/30 09:12:57;;;;;;;13.55;8.77;;;30.90;88.90;;;;;;5057005;28;20037;-79
2022/06/30 09:15:22;;;;;;;8.13;6.63;;;30.80;88.00;;;;;;5039772;28;20036;-79
2022/06/30 09:17:48;;;;;;;10.82;9.15;;;30.70;89.80;;;;;;5056393;28;20082;-79
2022/06/30 09:20:14;;;;;;;9.85;8.85;;;30.90;88.70;;;;;;5055664;28;20044;-79
2022/06/30 09:22:41;;;;;;;9.98;9.00;;;30.80;86.90;;;;;;5055326;28;20044;-79
2022/06/30 09:25:18;;;;;;;8.05;7.25;;;30.70;87.20;;;;;;5055314;28;20568;-79
2022/06/30 09:27:47;;;;;;;11.82;8.23;;;30.70;90.00;;;;;;5054973;28;20070;-78
2022/06/30 09:30:19;;;;;;;11.20;8.77;;;30.70;89.10;;;;;;5054275;28;20036;-81
2022/06/30 09:32:57;;;;;;;11.45;8.52;;;30.80;86.00;;;;;;5030386;28;20041;-74
2022/06/30 09:35:25;;;;;;;12.38;8.98;;;30.70;85.40;;;;;;5046881;28;20495;-74
2022/06/30 09:38:12;;;;;;;10.95;9.82;;;30.80;86.40;;;;;;5057831;28;20048;-75
2022/06/30 09:41:00;;;;;;;8.40;7.13;;;30.70;88.90;;;;;;5051916;28;20395;-74
2022/06/30 09:43:37;;;;;;;11.27;10.13;;;30.60;89.70;;;;;;5052714;28;20119;-74
2022/06/30 09:46:05;;;;;;;10.88;9.88;;;30.90;86.60;;;;;;5052650;28;20400;-73
2022/06/30 09:48:33;;;;;;;12.07;8.48;;;30.90;86.40;;;;;;5065246;28;20051;-74
2022/06/30 09:51:00;;;;;;;9.77;8.10;;;30.90;85.50;;;;;;5047198;28;20429;-74
2022/06/30 09:53:26;;;;;;;9.60;6.28;;;30.50;86.20;;;;;;5054447;28;20044;-81
2022/06/30 09:55:51;;;;;;;8.13;6.90;;;30.30;85.70;;;;;;5058597;28;20033;-81
2022/06/30 09:58:26;;;;;;;8.63;7.40;;;30.30;86.00;;;;;;5060034;28;20032;-80
2022/06/30 10:00:52;;;;;;;10.45;9.25;;;30.60;88.90;;;;;;5057353;28;20033;-80
2022/06/30 10:03:20;;;;;;;8.40;7.38;;;30.60;86.40;;;;;;5057846;28;20094;-80
2022/06/30 10:05:49;;;;;;;7.93;6.15;;;30.90;84.20;;;;;;5057400;28;20044;-80
2022/06/30 10:08:16;;;;;;;9.73;6.70;;;31.10;86.70;;;;;;5038988;28;20037;-80
2022/06/30 10:10:42;;;;;;;7.88;6.95;;;31.20;84.10;;;;;;5037718;28;20047;-81
2022/06/30 10:13:17;;;;;;;6.72;6.03;;;31.40;82.80;;;;;;5041599;28;20216;-81
2022/06/30 10:15:53;;;;;;;7.85;6.97;;;31.50;85.40;;;;;;5037491;28;20036;-81
2022/06/30 10:18:23;;;;;;;8.63;7.18;;;31.50;83.70;;;;;;5054895;28;20064;-80
2022/06/30 10:20:49;;;;;;;11.00;7.38;;;31.40;81.70;;;;;;5037920;28;20037;-81
2022/06/30 10:23:19;;;;;;;7.45;5.00;;;31.10;80.70;;;;;;5040592;28;20044;-80
2022/06/30 10:25:49;;;;;;;7.65;5.35;;;31.30;81.90;;;;;;5039648;28;20482;-80
2022/06/30 10:28:21;;;;;;;5.13;4.67;;;31.40;83.30;;;;;;5056130;28;20037;-80
2022/06/30 10:31:17;;;;;;;7.22;3.83;;;31.70;79.40;;;;;;5039225;28;20374;-80
2022/06/30 10:34:08;;;;;;;7.47;4.35;;;31.80;75.10;;;;;;5055971;28;20036;-80
2022/06/30 10:36:59;;;;;;;10.18;4.40;;;31.50;71.40;;;;;;5055091;28;20039;-80
2022/06/30 10:39:58;;;;;;;7.00;4.23;;;31.30;72.00;;;;;;5056279;28;20376;-80
2022/06/30 10:42:45;;;;;;;7.95;4.90;;;31.70;69.10;;;;;;5073333;28;20044;-81
2022/06/30 10:45:26;;;;;;;9.55;6.10;;;31.90;67.20;;;;;;5056882;28;20044;-80
2022/06/30 10:48:05;;;;;;;11.48;8.27;;;32.10;70.00;;;;;;5073698;28;20451;-80
2022/06/30 10:50:32;;;;;;;12.32;8.98;;;31.80;72.10;;;;;;5040077;28;20048;-80
2022/06/30 10:52:58;;;;;;;18.33;9.70;;;31.60;72.50;;;;;;5042709;28;20043;-80
2022/06/30 10:55:23;;;;;;;17.02;8.25;;;31.40;72.30;;;;;;5060583;28;20033;-80
2022/06/30 10:58:07;;;;;;;9.93;8.25;;;30.90;72.60;;;;;;5061044;28;20086;-80
2022/06/30 11:01:00;;;;;;;12.05;8.40;;;30.70;74.70;;;;;;5061062;28;20040;-80
2022/06/30 11:03:33;;;;;;;10.30;7.78;;;30.40;76.80;;;;;;5036928;28;20521;-79
2022/06/30 11:06:06;;;;;;;11.93;5.90;;;30.10;75.00;;;;;;5060739;28;20049;-80
2022/06/30 11:08:52;;;;;;;11.38;5.57;;;29.70;73.70;;;;;;5060054;28;20131;-80
2022/06/30 11:11:20;;;;;;;5.78;5.07;;;29.60;74.00;;;;;;5057262;28;20073;-80
2022/06/30 11:14:01;;;;;;;5.90;2.75;;;29.80;74.00;;;;;;5057768;28;20048;-80
2022/06/30 11:16:28;;;;;;;4.65;3.53;;;30.00;68.90;;;;;;5059433;28;20048;-80
2022/06/30 11:18:53;;;;;;;8.00;5.82;;;30.30;67.40;;;;;;5042622;28;20044;-80
2022/06/30 11:21:19;;;;;;;11.10;7.15;;;30.40;68.50;;;;;;5057431;28;20047;-82
2022/06/30 11:23:47;;;;;;;9.10;6.30;;;30.50;70.50;;;;;;5057407;28;20044;-81
2022/06/30 11:29:00;;;;;;;5.65;4.00;;;30.50;70.00;;;;;;5056897;28;20063;-81
2022/06/30 11:31:35;;;;;;;6.18;3.83;;;30.50;67.80;;;;;;5057232;28;20032;-81
2022/06/30 11:34:05;;;;;;;12.73;3.65;;;30.40;66.10;;;;;;5039888;28;20120;-81
2022/06/30 11:36:31;;;;;;;4.38;2.78;;;30.50;66.50;;;;;;5056034;28;20051;-81
2022/06/30 11:38:59;;;;;;;5.60;2.70;;;30.60;65.00;;;;;;5057238;28;20248;-80
2022/06/30 11:44:14;;;;;;;8.13;2.28;;;30.70;62.10;;;;;;5057224;28;20076;-81
2022/06/30 11:46:50;;;;;;;3.33;2.00;;;30.70;61.30;;;;;;5056540;28;20036;-80
2022/06/30 11:49:16;;;;;;;2.30;1.65;;;30.90;58.20;;;;;;5068225;28;20052;-81
2022/06/30 11:51:43;;;;;;;3.03;1.55;;;30.90;58.30;;;;;;5082706;28;20040;-80
2022/06/30 11:54:10;;;;;;;4.40;1.50;;;30.90;58.10;;;;;;5057934;28;20108;-81
2022/06/30 11:56:46;;;;;;;5.78;1.48;;;30.90;58.70;;;;;;5073512;28;20033;-80
2022/06/30 11:59:11;;;;;;;4.78;1.42;;;31.00;55.90;;;;;;5057154;28;20048;-81
2022/06/30 12:01:37;;;;;;;4.90;1.45;;;30.90;56.50;;;;;;5040382;28;20040;-80
2022/06/30 12:04:13;;;;;;;4.75;1.50;;;30.80;56.40;;;;;;5057387;28;20036;-80
2022/06/30 12:06:38;;;;;;;2.58;1.40;;;30.90;56.40;;;;;;5058228;28;20495;-81
2022/06/30 12:09:04;;;;;;;5.50;2.42;;;30.90;56.10;;;;;;5055314;28;20094;-81
2022/06/30 12:11:30;;;;;;;6.60;1.67;;;30.90;57.30;;;;;;5056126;28;20044;-80
2022/06/30 12:13:56;;;;;;;2.40;2.20;;;30.70;56.80;;;;;;5055645;28;20281;-81
2022/06/30 12:16:21;;;;;;;7.45;2.72;;;30.70;57.80;;;;;;5055329;28;20039;-80
2022/06/30 12:18:47;;;;;;;7.70;4.43;;;30.70;58.80;;;;;;5055700;28;20120;-80
2022/06/30 12:21:13;;;;;;;9.00;3.88;;;30.70;59.90;;;;;;5055755;28;20037;-80
2022/06/30 12:23:39;;;;;;;6.25;3.97;;;30.70;60.70;;;;;;5056083;28;20127;-80
2022/06/30 12:26:06;;;;;;;9.75;5.35;;;30.60;60.90;;;;;;5039159;28;20040;-81
2022/06/30 12:28:45;;;;;;;8.27;5.20;;;30.40;61.60;;;;;;5072694;28;20140;-80
2022/06/30 12:31:20;;;;;;;7.20;4.72;;;30.20;64.20;;;;;;5054374;28;20033;-81
2022/06/30 12:33:47;;;;;;;9.38;6.53;;;30.10;64.60;;;;;;5055504;28;20040;-81
2022/06/30 12:36:16;;;;;;;10.20;8.77;;;30.00;66.40;;;;;;5038704;28;20406;-81
2022/06/30 12:38:41;;;;;;;9.90;7.65;;;29.90;68.10;;;;;;5054815;28;20621;-81
2022/06/30 12:41:08;;;;;;;11.00;6.82;;;29.90;69.10;;;;;;5055206;28;20052;-81
2022/06/30 12:43:47;;;;;;;11.38;6.88;;;29.90;70.50;;;;;;5055711;28;20041;-81
2022/06/30 12:46:14;;;;;;;11.70;5.15;;;29.80;72.30;;;;;;5073128;28;20044;-81
2022/06/30 12:48:53;;;;;;;7.30;5.05;;;29.80;72.50;;;;;;5054710;28;20039;-81
2022/06/30 12:51:28;;;;;;;10.63;6.13;;;29.70;73.90;;;;;;5038106;28;20037;-82
2022/06/30 12:54:00;;;;;;;7.50;5.22;;;29.60;72.20;;;;;;5055034;28;20514;-81
2022/06/30 12:56:27;;;;;;;7.53;5.47;;;29.50;71.90;;;;;;5055405;28;20041;-81
2022/06/30 12:59:16;;;;;;;8.50;4.72;;;29.40;72.80;;;;;;5055511;28;20487;-81
2022/06/30 13:02:01;;;;;;;5.60;4.78;;;29.40;71.70;;;;;;5055029;28;20055;-81
2022/06/30 13:04:29;;;;;;;6.97;4.82;;;29.40;73.10;;;;;;5055338;28;20087;-81
2022/06/30 13:06:56;;;;;;;10.88;5.72;;;29.30;72.90;;;;;;5055320;28;20047;-81
2022/06/30 13:09:24;;;;;;;11.68;6.95;;;29.30;72.40;;;;;;5055362;28;20052;-82